sensor_id;sensor_type;location;lat;lon;timestamp;P1;durP1;ratioP1;P2;durP2;ratioP2
14799;SDS011;7491;57.750;11.970;2022-10-16T00:01:15;33.08;;;14.70;;
14799;SDS011;7491;57.750;11.970;2022-10-16T00:03:43;26.55;;;13.35;;
14799;SDS011;7491;57.750;11.970;2022-10-16T00:06:11;29.65;;;13.65;;
14799;SDS011;7491;57.750;11.970;2022-10-16T00:08:39;31.65;;;11.38;;
14799;SDS011;7491;57.750;11.970;2022-10-16T00:11:08;31.13;;;12.30;;
14799;SDS011;7491;57.750;11.970;2022-10-16T00:13:37;21.05;;;11.80;;
14799;SDS011;7491;57.750;11.970;2022-10-16T00:16:05;28.25;;;9.93;;
14799;SDS011;7491;57.750;11.970;2022-10-16T00:18:33;22.17;;;9.18;;
14799;SDS011;7491;57.750;11.970;2022-10-16T00:21:02;24.38;;;8.38;;
14799;SDS011;7491;57.750;11.970;2022-10-16T00:23:30;24.98;;;7.97;;
14799;SDS011;7491;57.750;11.970;2022-10-16T00:25:57;19.73;;;7.93;;
14799;SDS011;7491;57.750;11.970;2022-10-16T00:28:26;17.00;;;6.53;;
14799;SDS011;7491;57.750;11.970;2022-10-16T00:30:53;19.00;;;6.47;;
14799;SDS011;7491;57.750;11.970;2022-10-16T00:33:20;19.52;;;6.55;;
14799;SDS011;7491;57.750;11.970;2022-10-16T00:35:46;16.90;;;5.60;;
14799;SDS011;7491;57.750;11.970;2022-10-16T00:38:14;12.98;;;5.53;;
14799;SDS011;7491;57.750;11.970;2022-10-16T00:40:40;14.00;;;4.82;;
14799;SDS011;7491;57.750;11.970;2022-10-16T00:43:11;15.07;;;4.93;;
14799;SDS011;7491;57.750;11.970;2022-10-16T00:45:40;11.40;;;4.30;;
14799;SDS011;7491;57.750;11.970;2022-10-16T00:48:10;13.95;;;4.90;;
14799;SDS011;7491;57.750;11.970;2022-10-16T00:50:38;21.50;;;5.05;;
14799;SDS011;7491;57.750;11.970;2022-10-16T00:53:08;18.02;;;4.63;;
14799;SDS011;7491;57.750;11.970;2022-10-16T00:55:36;16.55;;;5.10;;
14799;SDS011;7491;57.750;11.970;2022-10-16T00:58:02;13.27;;;4.55;;
14799;SDS011;7491;57.750;11.970;2022-10-16T01:00:29;16.25;;;4.13;;
14799;SDS011;7491;57.750;11.970;2022-10-16T01:02:58;21.45;;;5.13;;
14799;SDS011;7491;57.750;11.970;2022-10-16T01:05:26;13.25;;;4.05;;
14799;SDS011;7491;57.750;11.970;2022-10-16T01:08:01;14.68;;;4.35;;
14799;SDS011;7491;57.750;11.970;2022-10-16T01:10:38;23.00;;;4.78;;
14799;SDS011;7491;57.750;11.970;2022-10-16T01:13:10;15.15;;;4.38;;
14799;SDS011;7491;57.750;11.970;2022-10-16T01:15:42;13.88;;;3.80;;
14799;SDS011;7491;57.750;11.970;2022-10-16T01:18:16;18.67;;;4.60;;
14799;SDS011;7491;57.750;11.970;2022-10-16T01:20:47;14.00;;;3.67;;
14799;SDS011;7491;57.750;11.970;2022-10-16T01:23:21;16.60;;;4.25;;
14799;SDS011;7491;57.750;11.970;2022-10-16T01:26:01;18.30;;;3.95;;
14799;SDS011;7491;57.750;11.970;2022-10-16T01:28:41;17.02;;;3.92;;
14799;SDS011;7491;57.750;11.970;2022-10-16T01:31:14;19.55;;;4.07;;
14799;SDS011;7491;57.750;11.970;2022-10-16T01:33:45;12.15;;;3.65;;
14799;SDS011;7491;57.750;11.970;2022-10-16T01:36:16;16.92;;;3.90;;
14799;SDS011;7491;57.750;11.970;2022-10-16T01:38:47;16.50;;;3.78;;
14799;SDS011;7491;57.750;11.970;2022-10-16T01:41:18;14.57;;;4.03;;
14799;SDS011;7491;57.750;11.970;2022-10-16T01:43:53;18.73;;;4.35;;
14799;SDS011;7491;57.750;11.970;2022-10-16T01:46:25;16.30;;;3.30;;
14799;SDS011;7491;57.750;11.970;2022-10-16T01:48:53;12.23;;;3.60;;
14799;SDS011;7491;57.750;11.970;2022-10-16T01:51:21;19.30;;;3.97;;
14799;SDS011;7491;57.750;11.970;2022-10-16T01:53:49;22.45;;;3.65;;
14799;SDS011;7491;57.750;11.970;2022-10-16T01:56:20;14.05;;;3.53;;
14799;SDS011;7491;57.750;11.970;2022-10-16T01:58:51;17.00;;;3.65;;
14799;SDS011;7491;57.750;11.970;2022-10-16T02:01:20;15.45;;;3.47;;
14799;SDS011;7491;57.750;11.970;2022-10-16T02:03:51;13.73;;;3.65;;
14799;SDS011;7491;57.750;11.970;2022-10-16T02:06:20;7.45;;;2.92;;
14799;SDS011;7491;57.750;11.970;2022-10-16T02:08:46;16.67;;;3.30;;
14799;SDS011;7491;57.750;11.970;2022-10-16T02:11:13;11.60;;;3.78;;
14799;SDS011;7491;57.750;11.970;2022-10-16T02:13:41;16.60;;;3.47;;
14799;SDS011;7491;57.750;11.970;2022-10-16T02:16:13;11.27;;;3.28;;
14799;SDS011;7491;57.750;11.970;2022-10-16T02:18:40;14.57;;;3.78;;
14799;SDS011;7491;57.750;11.970;2022-10-16T02:21:10;12.40;;;3.20;;
14799;SDS011;7491;57.750;11.970;2022-10-16T02:23:44;21.92;;;3.85;;
14799;SDS011;7491;57.750;11.970;2022-10-16T02:26:19;14.65;;;3.88;;
14799;SDS011;7491;57.750;11.970;2022-10-16T02:28:55;20.17;;;3.53;;
14799;SDS011;7491;57.750;11.970;2022-10-16T02:31:27;13.02;;;3.63;;
14799;SDS011;7491;57.750;11.970;2022-10-16T02:33:59;20.95;;;3.45;;
14799;SDS011;7491;57.750;11.970;2022-10-16T02:36:30;15.02;;;3.05;;
14799;SDS011;7491;57.750;11.970;2022-10-16T02:38:58;19.63;;;4.38;;
14799;SDS011;7491;57.750;11.970;2022-10-16T02:41:25;17.80;;;4.63;;
14799;SDS011;7491;57.750;11.970;2022-10-16T02:43:52;17.95;;;4.82;;
14799;SDS011;7491;57.750;11.970;2022-10-16T02:46:20;12.07;;;3.50;;
14799;SDS011;7491;57.750;11.970;2022-10-16T02:48:48;13.73;;;3.80;;
14799;SDS011;7491;57.750;11.970;2022-10-16T02:51:15;13.88;;;3.90;;
14799;SDS011;7491;57.750;11.970;2022-10-16T02:53:41;11.48;;;3.92;;
14799;SDS011;7491;57.750;11.970;2022-10-16T02:56:08;15.85;;;3.80;;
14799;SDS011;7491;57.750;11.970;2022-10-16T02:58:35;12.10;;;3.95;;
14799;SDS011;7491;57.750;11.970;2022-10-16T03:01:01;16.88;;;4.05;;
14799;SDS011;7491;57.750;11.970;2022-10-16T03:03:28;24.25;;;4.18;;
14799;SDS011;7491;57.750;11.970;2022-10-16T03:05:56;19.05;;;4.43;;
14799;SDS011;7491;57.750;11.970;2022-10-16T03:08:23;17.88;;;4.22;;
14799;SDS011;7491;57.750;11.970;2022-10-16T03:10:50;13.68;;;4.10;;
14799;SDS011;7491;57.750;11.970;2022-10-16T03:13:17;17.25;;;3.88;;
14799;SDS011;7491;57.750;11.970;2022-10-16T03:15:45;16.02;;;4.28;;
14799;SDS011;7491;57.750;11.970;2022-10-16T03:18:12;15.55;;;4.00;;
14799;SDS011;7491;57.750;11.970;2022-10-16T03:20:39;16.55;;;3.80;;
14799;SDS011;7491;57.750;11.970;2022-10-16T03:23:07;18.98;;;4.20;;
14799;SDS011;7491;57.750;11.970;2022-10-16T03:25:34;16.10;;;4.25;;
14799;SDS011;7491;57.750;11.970;2022-10-16T03:28:01;16.70;;;3.88;;
14799;SDS011;7491;57.750;11.970;2022-10-16T03:30:28;19.13;;;4.38;;
14799;SDS011;7491;57.750;11.970;2022-10-16T03:32:54;11.02;;;3.45;;
14799;SDS011;7491;57.750;11.970;2022-10-16T03:35:21;18.00;;;3.70;;
14799;SDS011;7491;57.750;11.970;2022-10-16T03:37:48;22.38;;;3.85;;
14799;SDS011;7491;57.750;11.970;2022-10-16T03:40:17;14.95;;;4.25;;
14799;SDS011;7491;57.750;11.970;2022-10-16T03:42:44;20.48;;;3.85;;
14799;SDS011;7491;57.750;11.970;2022-10-16T03:45:10;13.15;;;3.90;;
14799;SDS011;7491;57.750;11.970;2022-10-16T03:47:37;23.20;;;4.03;;
14799;SDS011;7491;57.750;11.970;2022-10-16T03:50:04;15.77;;;3.63;;
14799;SDS011;7491;57.750;11.970;2022-10-16T03:52:32;17.38;;;2.97;;
14799;SDS011;7491;57.750;11.970;2022-10-16T03:54:59;20.77;;;3.42;;
14799;SDS011;7491;57.750;11.970;2022-10-16T03:57:27;21.10;;;3.53;;
14799;SDS011;7491;57.750;11.970;2022-10-16T03:59:53;24.92;;;3.38;;
14799;SDS011;7491;57.750;11.970;2022-10-16T04:02:20;13.60;;;3.60;;
14799;SDS011;7491;57.750;11.970;2022-10-16T04:04:47;18.00;;;3.33;;
14799;SDS011;7491;57.750;11.970;2022-10-16T04:07:13;120.35;;;5.53;;
14799;SDS011;7491;57.750;11.970;2022-10-16T04:09:40;16.13;;;3.20;;
14799;SDS011;7491;57.750;11.970;2022-10-16T04:12:07;22.90;;;3.00;;
14799;SDS011;7491;57.750;11.970;2022-10-16T04:14:35;33.78;;;3.40;;
14799;SDS011;7491;57.750;11.970;2022-10-16T04:17:02;7.63;;;2.72;;
14799;SDS011;7491;57.750;11.970;2022-10-16T04:19:28;9.38;;;3.72;;
14799;SDS011;7491;57.750;11.970;2022-10-16T04:21:55;20.65;;;2.90;;
14799;SDS011;7491;57.750;11.970;2022-10-16T04:24:22;13.88;;;3.78;;
14799;SDS011;7491;57.750;11.970;2022-10-16T04:26:48;7.10;;;2.47;;
14799;SDS011;7491;57.750;11.970;2022-10-16T04:29:15;8.20;;;2.47;;
14799;SDS011;7491;57.750;11.970;2022-10-16T04:31:43;11.20;;;2.65;;
14799;SDS011;7491;57.750;11.970;2022-10-16T04:34:10;7.90;;;2.28;;
14799;SDS011;7491;57.750;11.970;2022-10-16T04:36:37;8.90;;;2.60;;
14799;SDS011;7491;57.750;11.970;2022-10-16T04:39:03;10.77;;;2.40;;
14799;SDS011;7491;57.750;11.970;2022-10-16T04:41:30;11.43;;;2.40;;
14799;SDS011;7491;57.750;11.970;2022-10-16T04:43:57;94.68;;;5.30;;
14799;SDS011;7491;57.750;11.970;2022-10-16T04:46:24;5.65;;;2.55;;
14799;SDS011;7491;57.750;11.970;2022-10-16T04:48:52;34.08;;;2.47;;
14799;SDS011;7491;57.750;11.970;2022-10-16T04:51:19;14.48;;;3.63;;
14799;SDS011;7491;57.750;11.970;2022-10-16T04:53:45;142.45;;;6.50;;
14799;SDS011;7491;57.750;11.970;2022-10-16T04:56:12;13.02;;;2.95;;
14799;SDS011;7491;57.750;11.970;2022-10-16T04:58:40;10.50;;;2.78;;
14799;SDS011;7491;57.750;11.970;2022-10-16T05:01:07;8.27;;;2.38;;
14799;SDS011;7491;57.750;11.970;2022-10-16T05:03:33;8.43;;;2.67;;
14799;SDS011;7491;57.750;11.970;2022-10-16T05:06:02;10.75;;;2.83;;
14799;SDS011;7491;57.750;11.970;2022-10-16T05:08:31;15.57;;;2.83;;
14799;SDS011;7491;57.750;11.970;2022-10-16T05:10:58;7.75;;;3.15;;
14799;SDS011;7491;57.750;11.970;2022-10-16T05:13:25;13.57;;;2.80;;
14799;SDS011;7491;57.750;11.970;2022-10-16T05:15:51;7.43;;;2.55;;
14799;SDS011;7491;57.750;11.970;2022-10-16T05:18:18;11.23;;;3.97;;
14799;SDS011;7491;57.750;11.970;2022-10-16T05:20:45;23.13;;;4.63;;
14799;SDS011;7491;57.750;11.970;2022-10-16T05:23:13;12.73;;;3.25;;
14799;SDS011;7491;57.750;11.970;2022-10-16T05:25:39;26.13;;;4.57;;
14799;SDS011;7491;57.750;11.970;2022-10-16T05:28:06;9.98;;;3.85;;
14799;SDS011;7491;57.750;11.970;2022-10-16T05:30:33;12.68;;;4.35;;
14799;SDS011;7491;57.750;11.970;2022-10-16T05:32:59;15.48;;;4.10;;
14799;SDS011;7491;57.750;11.970;2022-10-16T05:35:26;17.13;;;4.80;;
14799;SDS011;7491;57.750;11.970;2022-10-16T05:37:53;21.50;;;4.55;;
14799;SDS011;7491;57.750;11.970;2022-10-16T05:40:21;14.57;;;4.45;;
14799;SDS011;7491;57.750;11.970;2022-10-16T05:42:47;13.52;;;5.32;;
14799;SDS011;7491;57.750;11.970;2022-10-16T05:45:14;17.45;;;5.25;;
14799;SDS011;7491;57.750;11.970;2022-10-16T05:47:41;12.95;;;4.13;;
14799;SDS011;7491;57.750;11.970;2022-10-16T05:50:08;21.15;;;4.90;;
14799;SDS011;7491;57.750;11.970;2022-10-16T05:52:35;14.20;;;4.50;;
14799;SDS011;7491;57.750;11.970;2022-10-16T05:55:01;18.40;;;4.70;;
14799;SDS011;7491;57.750;11.970;2022-10-16T05:57:30;22.02;;;4.47;;
14799;SDS011;7491;57.750;11.970;2022-10-16T05:59:56;17.88;;;4.75;;
14799;SDS011;7491;57.750;11.970;2022-10-16T06:02:23;19.10;;;4.80;;
14799;SDS011;7491;57.750;11.970;2022-10-16T06:04:51;20.63;;;5.30;;
14799;SDS011;7491;57.750;11.970;2022-10-16T06:07:18;19.75;;;5.68;;
14799;SDS011;7491;57.750;11.970;2022-10-16T06:09:47;13.90;;;5.07;;
14799;SDS011;7491;57.750;11.970;2022-10-16T06:12:14;30.40;;;6.18;;
14799;SDS011;7491;57.750;11.970;2022-10-16T06:14:43;24.13;;;6.07;;
14799;SDS011;7491;57.750;11.970;2022-10-16T06:17:11;23.20;;;6.00;;
14799;SDS011;7491;57.750;11.970;2022-10-16T06:19:38;18.15;;;5.32;;
14799;SDS011;7491;57.750;11.970;2022-10-16T06:22:05;16.02;;;5.45;;
14799;SDS011;7491;57.750;11.970;2022-10-16T06:24:32;16.30;;;5.15;;
14799;SDS011;7491;57.750;11.970;2022-10-16T06:26:58;15.00;;;5.47;;
14799;SDS011;7491;57.750;11.970;2022-10-16T06:29:25;19.45;;;4.50;;
14799;SDS011;7491;57.750;11.970;2022-10-16T06:31:53;25.75;;;5.50;;
14799;SDS011;7491;57.750;11.970;2022-10-16T06:34:20;19.83;;;5.43;;
14799;SDS011;7491;57.750;11.970;2022-10-16T06:36:46;26.60;;;7.40;;
14799;SDS011;7491;57.750;11.970;2022-10-16T06:39:13;22.25;;;7.35;;
14799;SDS011;7491;57.750;11.970;2022-10-16T06:41:40;24.05;;;7.90;;
14799;SDS011;7491;57.750;11.970;2022-10-16T06:44:07;22.08;;;7.95;;
14799;SDS011;7491;57.750;11.970;2022-10-16T06:46:33;23.08;;;7.78;;
14799;SDS011;7491;57.750;11.970;2022-10-16T06:49:02;25.85;;;7.72;;
14799;SDS011;7491;57.750;11.970;2022-10-16T06:51:29;25.08;;;8.95;;
14799;SDS011;7491;57.750;11.970;2022-10-16T06:53:57;25.92;;;7.88;;
14799;SDS011;7491;57.750;11.970;2022-10-16T06:56:24;21.50;;;7.82;;
14799;SDS011;7491;57.750;11.970;2022-10-16T06:58:52;26.15;;;7.90;;
14799;SDS011;7491;57.750;11.970;2022-10-16T07:01:20;24.27;;;8.07;;
14799;SDS011;7491;57.750;11.970;2022-10-16T07:03:49;21.70;;;6.88;;
14799;SDS011;7491;57.750;11.970;2022-10-16T07:06:18;22.27;;;7.22;;
14799;SDS011;7491;57.750;11.970;2022-10-16T07:08:47;21.80;;;6.20;;
14799;SDS011;7491;57.750;11.970;2022-10-16T07:11:14;20.65;;;5.80;;
14799;SDS011;7491;57.750;11.970;2022-10-16T07:13:43;16.02;;;5.57;;
14799;SDS011;7491;57.750;11.970;2022-10-16T07:16:12;18.33;;;5.10;;
14799;SDS011;7491;57.750;11.970;2022-10-16T07:18:41;13.48;;;4.55;;
14799;SDS011;7491;57.750;11.970;2022-10-16T07:21:11;16.80;;;3.83;;
14799;SDS011;7491;57.750;11.970;2022-10-16T07:23:41;13.57;;;3.92;;
14799;SDS011;7491;57.750;11.970;2022-10-16T07:26:08;14.70;;;4.38;;
14799;SDS011;7491;57.750;11.970;2022-10-16T07:28:36;15.15;;;3.65;;
14799;SDS011;7491;57.750;11.970;2022-10-16T07:31:06;12.18;;;3.92;;
14799;SDS011;7491;57.750;11.970;2022-10-16T07:33:35;18.45;;;4.50;;
14799;SDS011;7491;57.750;11.970;2022-10-16T07:36:03;15.98;;;4.30;;
14799;SDS011;7491;57.750;11.970;2022-10-16T07:38:31;14.63;;;4.43;;
14799;SDS011;7491;57.750;11.970;2022-10-16T07:41:00;17.08;;;3.72;;
14799;SDS011;7491;57.750;11.970;2022-10-16T07:43:28;14.93;;;3.40;;
14799;SDS011;7491;57.750;11.970;2022-10-16T07:45:55;15.27;;;3.08;;
14799;SDS011;7491;57.750;11.970;2022-10-16T07:48:22;17.52;;;3.33;;
14799;SDS011;7491;57.750;11.970;2022-10-16T07:50:56;17.23;;;4.05;;
14799;SDS011;7491;57.750;11.970;2022-10-16T07:53:23;11.68;;;3.40;;
14799;SDS011;7491;57.750;11.970;2022-10-16T07:55:50;12.82;;;3.25;;
14799;SDS011;7491;57.750;11.970;2022-10-16T07:58:18;16.15;;;3.22;;
14799;SDS011;7491;57.750;11.970;2022-10-16T08:00:45;11.57;;;3.35;;
14799;SDS011;7491;57.750;11.970;2022-10-16T08:03:12;13.65;;;3.00;;
14799;SDS011;7491;57.750;11.970;2022-10-16T08:05:38;13.35;;;3.20;;
14799;SDS011;7491;57.750;11.970;2022-10-16T08:08:05;15.10;;;3.75;;
14799;SDS011;7491;57.750;11.970;2022-10-16T08:10:35;18.55;;;3.28;;
14799;SDS011;7491;57.750;11.970;2022-10-16T08:13:02;13.65;;;3.50;;
14799;SDS011;7491;57.750;11.970;2022-10-16T08:15:30;13.25;;;3.38;;
14799;SDS011;7491;57.750;11.970;2022-10-16T08:17:57;19.38;;;3.70;;
14799;SDS011;7491;57.750;11.970;2022-10-16T08:20:26;13.90;;;3.83;;
14799;SDS011;7491;57.750;11.970;2022-10-16T08:22:53;16.73;;;3.75;;
14799;SDS011;7491;57.750;11.970;2022-10-16T08:25:20;15.13;;;3.85;;
14799;SDS011;7491;57.750;11.970;2022-10-16T08:27:47;15.70;;;3.90;;
14799;SDS011;7491;57.750;11.970;2022-10-16T08:30:15;14.30;;;3.80;;
14799;SDS011;7491;57.750;11.970;2022-10-16T08:32:43;14.82;;;3.35;;
14799;SDS011;7491;57.750;11.970;2022-10-16T08:35:11;18.02;;;3.63;;
14799;SDS011;7491;57.750;11.970;2022-10-16T08:37:39;22.80;;;4.50;;
14799;SDS011;7491;57.750;11.970;2022-10-16T08:40:16;17.02;;;3.40;;
14799;SDS011;7491;57.750;11.970;2022-10-16T08:42:55;28.88;;;4.47;;
14799;SDS011;7491;57.750;11.970;2022-10-16T08:45:38;19.48;;;4.15;;
14799;SDS011;7491;57.750;11.970;2022-10-16T08:48:20;20.23;;;4.47;;
14799;SDS011;7491;57.750;11.970;2022-10-16T08:50:52;17.08;;;3.58;;
14799;SDS011;7491;57.750;11.970;2022-10-16T08:53:20;18.60;;;3.63;;
14799;SDS011;7491;57.750;11.970;2022-10-16T08:55:52;21.10;;;4.10;;
14799;SDS011;7491;57.750;11.970;2022-10-16T08:58:20;14.10;;;3.42;;
14799;SDS011;7491;57.750;11.970;2022-10-16T09:00:49;20.58;;;5.00;;
14799;SDS011;7491;57.750;11.970;2022-10-16T09:03:27;19.42;;;3.28;;
14799;SDS011;7491;57.750;11.970;2022-10-16T09:06:07;21.38;;;2.95;;
14799;SDS011;7491;57.750;11.970;2022-10-16T09:08:59;26.58;;;3.85;;
14799;SDS011;7491;57.750;11.970;2022-10-16T09:11:39;23.98;;;3.30;;
14799;SDS011;7491;57.750;11.970;2022-10-16T09:14:20;12.88;;;3.00;;
14799;SDS011;7491;57.750;11.970;2022-10-16T09:17:03;21.38;;;4.70;;
14799;SDS011;7491;57.750;11.970;2022-10-16T09:19:44;24.15;;;4.00;;
14799;SDS011;7491;57.750;11.970;2022-10-16T09:22:16;19.85;;;4.13;;
14799;SDS011;7491;57.750;11.970;2022-10-16T09:24:47;19.50;;;4.13;;
14799;SDS011;7491;57.750;11.970;2022-10-16T09:27:14;24.02;;;4.68;;
14799;SDS011;7491;57.750;11.970;2022-10-16T09:29:41;31.50;;;4.20;;
14799;SDS011;7491;57.750;11.970;2022-10-16T09:32:12;20.77;;;3.25;;
14799;SDS011;7491;57.750;11.970;2022-10-16T09:34:43;20.38;;;3.80;;
14799;SDS011;7491;57.750;11.970;2022-10-16T09:37:14;21.08;;;4.65;;
14799;SDS011;7491;57.750;11.970;2022-10-16T09:39:46;19.55;;;3.33;;
14799;SDS011;7491;57.750;11.970;2022-10-16T09:42:15;19.30;;;3.58;;
14799;SDS011;7491;57.750;11.970;2022-10-16T09:44:53;17.77;;;3.58;;
14799;SDS011;7491;57.750;11.970;2022-10-16T09:47:22;20.02;;;4.03;;
14799;SDS011;7491;57.750;11.970;2022-10-16T09:49:54;21.55;;;4.28;;
14799;SDS011;7491;57.750;11.970;2022-10-16T09:52:23;19.23;;;3.78;;
14799;SDS011;7491;57.750;11.970;2022-10-16T09:54:52;20.73;;;3.70;;
14799;SDS011;7491;57.750;11.970;2022-10-16T09:57:22;15.80;;;3.50;;
14799;SDS011;7491;57.750;11.970;2022-10-16T09:59:50;19.35;;;4.65;;
14799;SDS011;7491;57.750;11.970;2022-10-16T10:02:27;19.10;;;4.43;;
14799;SDS011;7491;57.750;11.970;2022-10-16T10:04:58;15.82;;;3.22;;
14799;SDS011;7491;57.750;11.970;2022-10-16T10:07:25;18.63;;;3.20;;
14799;SDS011;7491;57.750;11.970;2022-10-16T10:09:56;17.38;;;3.63;;
14799;SDS011;7491;57.750;11.970;2022-10-16T10:12:37;22.52;;;3.92;;
14799;SDS011;7491;57.750;11.970;2022-10-16T10:15:05;23.60;;;4.35;;
14799;SDS011;7491;57.750;11.970;2022-10-16T10:17:44;15.43;;;3.15;;
14799;SDS011;7491;57.750;11.970;2022-10-16T10:20:21;24.50;;;3.60;;
14799;SDS011;7491;57.750;11.970;2022-10-16T10:22:50;23.20;;;3.80;;
14799;SDS011;7491;57.750;11.970;2022-10-16T10:25:31;21.00;;;3.78;;
14799;SDS011;7491;57.750;11.970;2022-10-16T10:28:08;12.82;;;3.30;;
14799;SDS011;7491;57.750;11.970;2022-10-16T10:30:46;17.70;;;4.20;;
14799;SDS011;7491;57.750;11.970;2022-10-16T10:33:23;18.77;;;3.70;;
14799;SDS011;7491;57.750;11.970;2022-10-16T10:35:58;19.83;;;4.65;;
14799;SDS011;7491;57.750;11.970;2022-10-16T10:38:39;16.83;;;3.63;;
14799;SDS011;7491;57.750;11.970;2022-10-16T10:41:30;19.45;;;3.95;;
14799;SDS011;7491;57.750;11.970;2022-10-16T10:44:20;20.75;;;4.25;;
14799;SDS011;7491;57.750;11.970;2022-10-16T10:46:57;16.73;;;3.72;;
14799;SDS011;7491;57.750;11.970;2022-10-16T10:49:34;21.67;;;3.92;;
14799;SDS011;7491;57.750;11.970;2022-10-16T10:52:19;29.08;;;3.88;;
14799;SDS011;7491;57.750;11.970;2022-10-16T10:55:01;19.40;;;3.53;;
14799;SDS011;7491;57.750;11.970;2022-10-16T10:57:37;15.55;;;3.60;;
14799;SDS011;7491;57.750;11.970;2022-10-16T11:00:17;18.05;;;4.18;;
14799;SDS011;7491;57.750;11.970;2022-10-16T11:02:48;15.55;;;3.47;;
14799;SDS011;7491;57.750;11.970;2022-10-16T11:05:28;15.30;;;3.20;;
14799;SDS011;7491;57.750;11.970;2022-10-16T11:08:06;15.02;;;3.00;;
14799;SDS011;7491;57.750;11.970;2022-10-16T11:10:40;23.85;;;4.00;;
14799;SDS011;7491;57.750;11.970;2022-10-16T11:13:16;26.80;;;5.10;;
14799;SDS011;7491;57.750;11.970;2022-10-16T11:15:50;21.50;;;4.40;;
14799;SDS011;7491;57.750;11.970;2022-10-16T11:18:24;23.40;;;4.80;;
14799;SDS011;7491;57.750;11.970;2022-10-16T11:20:57;28.80;;;5.28;;
14799;SDS011;7491;57.750;11.970;2022-10-16T11:23:33;31.17;;;5.03;;
14799;SDS011;7491;57.750;11.970;2022-10-16T11:26:20;22.80;;;4.68;;
14799;SDS011;7491;57.750;11.970;2022-10-16T11:28:53;21.90;;;4.82;;
14799;SDS011;7491;57.750;11.970;2022-10-16T11:31:23;28.45;;;5.28;;
14799;SDS011;7491;57.750;11.970;2022-10-16T11:33:59;18.33;;;4.45;;
14799;SDS011;7491;57.750;11.970;2022-10-16T11:36:32;21.63;;;4.57;;
14799;SDS011;7491;57.750;11.970;2022-10-16T11:39:07;20.25;;;4.03;;
14799;SDS011;7491;57.750;11.970;2022-10-16T11:41:44;24.27;;;4.07;;
14799;SDS011;7491;57.750;11.970;2022-10-16T11:44:19;24.48;;;4.68;;
14799;SDS011;7491;57.750;11.970;2022-10-16T11:47:01;24.08;;;4.55;;
14799;SDS011;7491;57.750;11.970;2022-10-16T11:49:34;16.02;;;3.40;;
14799;SDS011;7491;57.750;11.970;2022-10-16T11:52:05;24.30;;;4.43;;
14799;SDS011;7491;57.750;11.970;2022-10-16T11:54:44;22.85;;;4.40;;
14799;SDS011;7491;57.750;11.970;2022-10-16T11:57:16;20.58;;;4.20;;
14799;SDS011;7491;57.750;11.970;2022-10-16T11:59:47;29.23;;;4.63;;
14799;SDS011;7491;57.750;11.970;2022-10-16T12:02:30;8.23;;;2.13;;
14799;SDS011;7491;57.750;11.970;2022-10-16T12:05:07;9.00;;;2.47;;
14799;SDS011;7491;57.750;11.970;2022-10-16T12:07:47;9.75;;;1.70;;
14799;SDS011;7491;57.750;11.970;2022-10-16T12:10:23;7.40;;;2.00;;
14799;SDS011;7491;57.750;11.970;2022-10-16T12:12:51;14.20;;;2.13;;
14799;SDS011;7491;57.750;11.970;2022-10-16T12:15:20;12.80;;;2.60;;
14799;SDS011;7491;57.750;11.970;2022-10-16T12:17:49;16.00;;;2.97;;
14799;SDS011;7491;57.750;11.970;2022-10-16T12:20:53;23.50;;;4.18;;
14799;SDS011;7491;57.750;11.970;2022-10-16T12:23:30;27.90;;;3.92;;
14799;SDS011;7491;57.750;11.970;2022-10-16T12:25:59;25.50;;;4.95;;
14799;SDS011;7491;57.750;11.970;2022-10-16T12:28:28;23.55;;;4.40;;
14799;SDS011;7491;57.750;11.970;2022-10-16T12:30:58;41.20;;;5.78;;
14799;SDS011;7491;57.750;11.970;2022-10-16T12:33:28;38.08;;;5.65;;
14799;SDS011;7491;57.750;11.970;2022-10-16T12:35:57;45.22;;;11.23;;
14799;SDS011;7491;57.750;11.970;2022-10-16T12:38:26;31.83;;;4.97;;
14799;SDS011;7491;57.750;11.970;2022-10-16T12:41:59;27.38;;;5.47;;
14799;SDS011;7491;57.750;11.970;2022-10-16T12:44:21;22.02;;;5.00;;
14799;SDS011;7491;57.750;11.970;2022-10-16T12:46:49;45.08;;;13.95;;
14799;SDS011;7491;57.750;11.970;2022-10-16T12:49:23;38.22;;;11.07;;
14799;SDS011;7491;57.750;11.970;2022-10-16T12:51:56;23.52;;;6.50;;
14799;SDS011;7491;57.750;11.970;2022-10-16T12:54:27;23.30;;;4.90;;
14799;SDS011;7491;57.750;11.970;2022-10-16T12:57:00;20.85;;;5.00;;
14799;SDS011;7491;57.750;11.970;2022-10-16T12:59:37;23.33;;;5.20;;
14799;SDS011;7491;57.750;11.970;2022-10-16T13:02:24;20.17;;;3.00;;
14799;SDS011;7491;57.750;11.970;2022-10-16T13:05:20;24.23;;;3.53;;
14799;SDS011;7491;57.750;11.970;2022-10-16T13:08:02;25.33;;;3.65;;
14799;SDS011;7491;57.750;11.970;2022-10-16T13:10:46;17.85;;;2.95;;
14799;SDS011;7491;57.750;11.970;2022-10-16T13:16:16;16.88;;;2.75;;
14799;SDS011;7491;57.750;11.970;2022-10-16T13:18:53;18.98;;;3.10;;
14799;SDS011;7491;57.750;11.970;2022-10-16T13:21:36;28.17;;;3.25;;
14799;SDS011;7491;57.750;11.970;2022-10-16T13:24:16;14.95;;;2.53;;
14799;SDS011;7491;57.750;11.970;2022-10-16T13:26:53;13.45;;;2.67;;
14799;SDS011;7491;57.750;11.970;2022-10-16T13:29:28;10.35;;;2.92;;
14799;SDS011;7491;57.750;11.970;2022-10-16T13:31:58;12.35;;;2.55;;
14799;SDS011;7491;57.750;11.970;2022-10-16T13:34:26;18.08;;;3.63;;
14799;SDS011;7491;57.750;11.970;2022-10-16T13:36:53;16.98;;;3.45;;
14799;SDS011;7491;57.750;11.970;2022-10-16T13:39:23;14.70;;;2.55;;
14799;SDS011;7491;57.750;11.970;2022-10-16T13:42:00;16.17;;;3.72;;
14799;SDS011;7491;57.750;11.970;2022-10-16T13:44:30;18.15;;;3.05;;
14799;SDS011;7491;57.750;11.970;2022-10-16T13:47:10;19.63;;;4.05;;
14799;SDS011;7491;57.750;11.970;2022-10-16T13:49:42;14.10;;;3.10;;
14799;SDS011;7491;57.750;11.970;2022-10-16T13:52:15;16.80;;;3.22;;
14799;SDS011;7491;57.750;11.970;2022-10-16T13:54:43;16.20;;;3.45;;
14799;SDS011;7491;57.750;11.970;2022-10-16T13:57:11;20.73;;;4.15;;
14799;SDS011;7491;57.750;11.970;2022-10-16T13:59:39;22.33;;;3.88;;
14799;SDS011;7491;57.750;11.970;2022-10-16T14:02:26;19.30;;;3.45;;
14799;SDS011;7491;57.750;11.970;2022-10-16T14:04:57;16.60;;;3.60;;
14799;SDS011;7491;57.750;11.970;2022-10-16T14:07:25;20.38;;;3.55;;
14799;SDS011;7491;57.750;11.970;2022-10-16T14:09:53;20.75;;;3.63;;
14799;SDS011;7491;57.750;11.970;2022-10-16T14:12:21;12.90;;;3.38;;
14799;SDS011;7491;57.750;11.970;2022-10-16T14:14:49;20.08;;;3.15;;
14799;SDS011;7491;57.750;11.970;2022-10-16T14:17:22;20.23;;;3.15;;
14799;SDS011;7491;57.750;11.970;2022-10-16T14:19:51;19.08;;;4.30;;
14799;SDS011;7491;57.750;11.970;2022-10-16T14:22:26;14.50;;;3.08;;
14799;SDS011;7491;57.750;11.970;2022-10-16T14:24:55;18.30;;;3.10;;
14799;SDS011;7491;57.750;11.970;2022-10-16T14:27:28;17.10;;;3.92;;
14799;SDS011;7491;57.750;11.970;2022-10-16T14:30:08;15.23;;;3.15;;
14799;SDS011;7491;57.750;11.970;2022-10-16T14:32:41;17.42;;;4.78;;
14799;SDS011;7491;57.750;11.970;2022-10-16T14:35:23;15.07;;;3.53;;
14799;SDS011;7491;57.750;11.970;2022-10-16T14:37:51;13.70;;;3.78;;
14799;SDS011;7491;57.750;11.970;2022-10-16T14:40:19;10.95;;;3.17;;
14799;SDS011;7491;57.750;11.970;2022-10-16T14:42:49;15.50;;;3.80;;
14799;SDS011;7491;57.750;11.970;2022-10-16T14:45:18;16.67;;;3.28;;
14799;SDS011;7491;57.750;11.970;2022-10-16T14:47:49;23.83;;;3.78;;
14799;SDS011;7491;57.750;11.970;2022-10-16T14:50:18;17.35;;;3.20;;
14799;SDS011;7491;57.750;11.970;2022-10-16T14:52:45;15.23;;;3.72;;
14799;SDS011;7491;57.750;11.970;2022-10-16T14:55:11;15.40;;;2.88;;
14799;SDS011;7491;57.750;11.970;2022-10-16T14:57:38;19.92;;;3.17;;
14799;SDS011;7491;57.750;11.970;2022-10-16T15:00:08;13.65;;;3.33;;